sensor_id;sensor_type;location;lat;lon;timestamp;P1;durP1;ratioP1;P2;durP2;ratioP2
36931;SDS011;22847;42.654;23.370;2024-02-04T00:02:25;6.80;;;3.30;;
36931;SDS011;22847;42.654;23.370;2024-02-04T00:04:51;7.78;;;3.92;;
36931;SDS011;22847;42.654;23.370;2024-02-04T00:07:17;6.70;;;3.60;;
36931;SDS011;22847;42.654;23.370;2024-02-04T00:09:42;9.15;;;3.63;;
36931;SDS011;22847;42.654;23.370;2024-02-04T00:12:09;8.95;;;4.07;;
36931;SDS011;22847;42.654;23.370;2024-02-04T00:14:35;5.80;;;3.72;;
36931;SDS011;22847;42.654;23.370;2024-02-04T00:17:00;8.35;;;3.83;;
36931;SDS011;22847;42.654;23.370;2024-02-04T00:19:26;6.20;;;3.88;;
36931;SDS011;22847;42.654;23.370;2024-02-04T00:21:52;10.48;;;4.07;;
36931;SDS011;22847;42.654;23.370;2024-02-04T00:24:17;8.63;;;4.32;;
36931;SDS011;22847;42.654;23.370;2024-02-04T00:26:45;7.45;;;3.58;;
36931;SDS011;22847;42.654;23.370;2024-02-04T00:29:11;6.13;;;4.07;;
36931;SDS011;22847;42.654;23.370;2024-02-04T00:31:37;7.57;;;4.25;;
36931;SDS011;22847;42.654;23.370;2024-02-04T00:34:03;5.70;;;3.70;;
36931;SDS011;22847;42.654;23.370;2024-02-04T00:36:29;9.00;;;4.07;;
36931;SDS011;22847;42.654;23.370;2024-02-04T00:38:55;5.45;;;3.85;;
36931;SDS011;22847;42.654;23.370;2024-02-04T00:41:20;6.72;;;4.30;;
36931;SDS011;22847;42.654;23.370;2024-02-04T00:43:46;7.45;;;4.35;;
36931;SDS011;22847;42.654;23.370;2024-02-04T00:46:11;7.68;;;3.92;;
36931;SDS011;22847;42.654;23.370;2024-02-04T00:48:37;7.85;;;4.20;;
36931;SDS011;22847;42.654;23.370;2024-02-04T00:51:03;6.78;;;4.13;;
36931;SDS011;22847;42.654;23.370;2024-02-04T00:53:28;5.70;;;3.67;;
36931;SDS011;22847;42.654;23.370;2024-02-04T00:55:59;5.40;;;3.83;;
36931;SDS011;22847;42.654;23.370;2024-02-04T00:58:28;6.60;;;3.78;;
36931;SDS011;22847;42.654;23.370;2024-02-04T01:00:53;9.05;;;3.70;;
36931;SDS011;22847;42.654;23.370;2024-02-04T01:03:19;9.07;;;4.38;;
36931;SDS011;22847;42.654;23.370;2024-02-04T01:05:44;6.55;;;3.45;;
36931;SDS011;22847;42.654;23.370;2024-02-04T01:08:10;5.40;;;3.85;;
36931;SDS011;22847;42.654;23.370;2024-02-04T01:10:35;7.65;;;3.95;;
36931;SDS011;22847;42.654;23.370;2024-02-04T01:13:01;6.70;;;4.10;;
36931;SDS011;22847;42.654;23.370;2024-02-04T01:15:26;6.95;;;3.83;;
36931;SDS011;22847;42.654;23.370;2024-02-04T01:17:52;9.00;;;4.07;;
36931;SDS011;22847;42.654;23.370;2024-02-04T01:20:17;5.80;;;3.50;;
36931;SDS011;22847;42.654;23.370;2024-02-04T01:22:43;6.85;;;3.70;;
36931;SDS011;22847;42.654;23.370;2024-02-04T01:25:08;7.15;;;4.07;;
36931;SDS011;22847;42.654;23.370;2024-02-04T01:27:34;8.88;;;4.05;;
36931;SDS011;22847;42.654;23.370;2024-02-04T01:30:00;9.13;;;3.95;;
36931;SDS011;22847;42.654;23.370;2024-02-04T01:32:26;6.93;;;3.42;;
36931;SDS011;22847;42.654;23.370;2024-02-04T01:34:51;8.50;;;2.65;;
36931;SDS011;22847;42.654;23.370;2024-02-04T01:37:17;6.28;;;3.97;;
36931;SDS011;22847;42.654;23.370;2024-02-04T01:39:43;5.68;;;3.40;;
36931;SDS011;22847;42.654;23.370;2024-02-04T01:42:08;5.45;;;3.53;;
36931;SDS011;22847;42.654;23.370;2024-02-04T01:44:35;5.57;;;3.13;;
36931;SDS011;22847;42.654;23.370;2024-02-04T01:47:01;6.22;;;3.42;;
36931;SDS011;22847;42.654;23.370;2024-02-04T01:49:26;4.20;;;3.10;;
36931;SDS011;22847;42.654;23.370;2024-02-04T01:51:52;6.03;;;2.92;;
36931;SDS011;22847;42.654;23.370;2024-02-04T01:54:19;5.35;;;3.08;;
36931;SDS011;22847;42.654;23.370;2024-02-04T01:56:46;6.43;;;3.20;;
36931;SDS011;22847;42.654;23.370;2024-02-04T01:59:14;6.05;;;3.25;;
36931;SDS011;22847;42.654;23.370;2024-02-04T02:01:40;6.00;;;3.58;;
36931;SDS011;22847;42.654;23.370;2024-02-04T02:04:08;3.95;;;2.85;;
36931;SDS011;22847;42.654;23.370;2024-02-04T02:06:33;6.03;;;3.03;;
36931;SDS011;22847;42.654;23.370;2024-02-04T02:09:06;6.30;;;3.58;;
36931;SDS011;22847;42.654;23.370;2024-02-04T02:11:42;5.68;;;3.85;;
36931;SDS011;22847;42.654;23.370;2024-02-04T02:14:16;7.28;;;3.55;;
36931;SDS011;22847;42.654;23.370;2024-02-04T02:16:46;8.20;;;3.20;;
36931;SDS011;22847;42.654;23.370;2024-02-04T02:22:28;5.05;;;3.20;;
36931;SDS011;22847;42.654;23.370;2024-02-04T02:24:58;6.72;;;3.58;;
36931;SDS011;22847;42.654;23.370;2024-02-04T02:27:27;5.43;;;3.40;;
36931;SDS011;22847;42.654;23.370;2024-02-04T02:29:52;7.35;;;3.53;;
36931;SDS011;22847;42.654;23.370;2024-02-04T02:32:18;4.88;;;3.50;;
36931;SDS011;22847;42.654;23.370;2024-02-04T02:34:44;5.25;;;2.97;;
36931;SDS011;22847;42.654;23.370;2024-02-04T02:42:29;5.43;;;3.47;;
36931;SDS011;22847;42.654;23.370;2024-02-04T02:44:56;5.65;;;3.20;;
36931;SDS011;22847;42.654;23.370;2024-02-04T02:47:22;4.82;;;3.03;;
36931;SDS011;22847;42.654;23.370;2024-02-04T02:49:50;4.80;;;2.90;;
36931;SDS011;22847;42.654;23.370;2024-02-04T02:52:18;4.75;;;2.97;;
36931;SDS011;22847;42.654;23.370;2024-02-04T02:54:43;3.75;;;2.90;;
36931;SDS011;22847;42.654;23.370;2024-02-04T02:57:09;4.05;;;2.63;;
36931;SDS011;22847;42.654;23.370;2024-02-04T02:59:34;6.40;;;3.05;;
36931;SDS011;22847;42.654;23.370;2024-02-04T03:02:00;6.22;;;3.40;;
36931;SDS011;22847;42.654;23.370;2024-02-04T03:04:25;6.53;;;3.55;;
36931;SDS011;22847;42.654;23.370;2024-02-04T03:06:51;4.55;;;2.75;;
36931;SDS011;22847;42.654;23.370;2024-02-04T03:09:16;4.88;;;3.08;;
36931;SDS011;22847;42.654;23.370;2024-02-04T03:11:41;4.40;;;3.33;;
36931;SDS011;22847;42.654;23.370;2024-02-04T03:14:07;5.88;;;3.13;;
36931;SDS011;22847;42.654;23.370;2024-02-04T03:16:33;6.13;;;3.13;;
36931;SDS011;22847;42.654;23.370;2024-02-04T03:18:58;5.95;;;3.00;;
36931;SDS011;22847;42.654;23.370;2024-02-04T03:21:24;3.38;;;2.45;;
36931;SDS011;22847;42.654;23.370;2024-02-04T03:23:50;5.05;;;2.60;;
36931;SDS011;22847;42.654;23.370;2024-02-04T03:26:18;5.55;;;3.20;;
36931;SDS011;22847;42.654;23.370;2024-02-04T03:28:46;7.03;;;3.13;;
36931;SDS011;22847;42.654;23.370;2024-02-04T03:31:12;5.25;;;2.83;;
36931;SDS011;22847;42.654;23.370;2024-02-04T03:33:44;5.05;;;2.63;;
36931;SDS011;22847;42.654;23.370;2024-02-04T03:36:09;4.82;;;2.80;;
36931;SDS011;22847;42.654;23.370;2024-02-04T03:38:35;4.75;;;2.60;;
36931;SDS011;22847;42.654;23.370;2024-02-04T03:41:00;4.32;;;2.70;;
36931;SDS011;22847;42.654;23.370;2024-02-04T03:43:26;3.10;;;2.25;;
36931;SDS011;22847;42.654;23.370;2024-02-04T03:45:51;3.60;;;2.40;;
36931;SDS011;22847;42.654;23.370;2024-02-04T03:48:17;4.20;;;2.60;;
36931;SDS011;22847;42.654;23.370;2024-02-04T03:50:42;5.30;;;2.75;;
36931;SDS011;22847;42.654;23.370;2024-02-04T03:53:08;2.90;;;2.25;;
36931;SDS011;22847;42.654;23.370;2024-02-04T03:55:33;4.18;;;2.22;;
36931;SDS011;22847;42.654;23.370;2024-02-04T03:57:58;2.40;;;2.20;;
36931;SDS011;22847;42.654;23.370;2024-02-04T04:00:24;4.20;;;2.33;;
36931;SDS011;22847;42.654;23.370;2024-02-04T04:02:50;3.03;;;2.10;;
36931;SDS011;22847;42.654;23.370;2024-02-04T04:05:15;4.35;;;2.10;;
36931;SDS011;22847;42.654;23.370;2024-02-04T04:07:41;6.85;;;2.30;;
36931;SDS011;22847;42.654;23.370;2024-02-04T04:10:06;4.10;;;2.50;;
36931;SDS011;22847;42.654;23.370;2024-02-04T04:12:32;4.75;;;2.83;;
36931;SDS011;22847;42.654;23.370;2024-02-04T04:14:57;4.15;;;2.40;;
36931;SDS011;22847;42.654;23.370;2024-02-04T04:17:23;4.28;;;2.53;;
36931;SDS011;22847;42.654;23.370;2024-02-04T04:19:48;5.43;;;2.95;;
36931;SDS011;22847;42.654;23.370;2024-02-04T04:22:14;4.30;;;2.65;;
36931;SDS011;22847;42.654;23.370;2024-02-04T04:24:39;4.68;;;2.63;;
36931;SDS011;22847;42.654;23.370;2024-02-04T04:27:05;3.95;;;2.63;;
36931;SDS011;22847;42.654;23.370;2024-02-04T04:29:30;3.42;;;2.47;;
36931;SDS011;22847;42.654;23.370;2024-02-04T04:31:56;3.38;;;2.40;;
36931;SDS011;22847;42.654;23.370;2024-02-04T04:34:21;6.57;;;2.70;;
36931;SDS011;22847;42.654;23.370;2024-02-04T04:36:47;6.70;;;2.58;;
36931;SDS011;22847;42.654;23.370;2024-02-04T04:39:12;2.78;;;2.35;;
36931;SDS011;22847;42.654;23.370;2024-02-04T04:41:39;7.00;;;2.80;;
36931;SDS011;22847;42.654;23.370;2024-02-04T04:44:05;4.90;;;2.63;;
36931;SDS011;22847;42.654;23.370;2024-02-04T04:46:30;4.47;;;2.30;;
36931;SDS011;22847;42.654;23.370;2024-02-04T04:48:56;3.45;;;2.92;;
36931;SDS011;22847;42.654;23.370;2024-02-04T04:51:23;4.40;;;2.50;;
36931;SDS011;22847;42.654;23.370;2024-02-04T04:53:49;2.75;;;2.40;;
36931;SDS011;22847;42.654;23.370;2024-02-04T04:56:14;4.22;;;2.90;;
36931;SDS011;22847;42.654;23.370;2024-02-04T04:58:40;3.95;;;3.05;;
36931;SDS011;22847;42.654;23.370;2024-02-04T05:01:06;3.55;;;2.33;;
36931;SDS011;22847;42.654;23.370;2024-02-04T05:03:31;4.38;;;2.70;;
36931;SDS011;22847;42.654;23.370;2024-02-04T05:05:57;5.68;;;2.60;;
36931;SDS011;22847;42.654;23.370;2024-02-04T05:08:23;2.92;;;2.22;;
36931;SDS011;22847;42.654;23.370;2024-02-04T05:10:48;4.50;;;2.55;;
36931;SDS011;22847;42.654;23.370;2024-02-04T05:13:14;3.85;;;2.88;;
36931;SDS011;22847;42.654;23.370;2024-02-04T05:15:39;4.68;;;3.00;;
36931;SDS011;22847;42.654;23.370;2024-02-04T05:18:05;4.00;;;2.60;;
36931;SDS011;22847;42.654;23.370;2024-02-04T05:20:30;4.88;;;2.60;;
36931;SDS011;22847;42.654;23.370;2024-02-04T05:22:56;5.43;;;2.90;;
36931;SDS011;22847;42.654;23.370;2024-02-04T05:25:22;3.92;;;2.72;;
36931;SDS011;22847;42.654;23.370;2024-02-04T05:27:48;6.25;;;3.03;;
36931;SDS011;22847;42.654;23.370;2024-02-04T05:30:14;8.45;;;4.57;;
36931;SDS011;22847;42.654;23.370;2024-02-04T05:32:40;4.13;;;2.58;;
36931;SDS011;22847;42.654;23.370;2024-02-04T05:35:07;4.32;;;2.90;;
36931;SDS011;22847;42.654;23.370;2024-02-04T05:37:33;12.43;;;3.40;;
36931;SDS011;22847;42.654;23.370;2024-02-04T05:39:58;3.47;;;2.70;;
36931;SDS011;22847;42.654;23.370;2024-02-04T05:42:24;4.93;;;2.65;;
36931;SDS011;22847;42.654;23.370;2024-02-04T05:44:49;3.95;;;2.60;;
36931;SDS011;22847;42.654;23.370;2024-02-04T05:47:15;3.92;;;2.30;;
36931;SDS011;22847;42.654;23.370;2024-02-04T05:49:40;5.28;;;2.42;;
36931;SDS011;22847;42.654;23.370;2024-02-04T05:52:06;3.80;;;2.78;;
36931;SDS011;22847;42.654;23.370;2024-02-04T05:54:32;4.07;;;2.80;;
36931;SDS011;22847;42.654;23.370;2024-02-04T05:56:57;5.30;;;2.78;;
36931;SDS011;22847;42.654;23.370;2024-02-04T05:59:23;4.78;;;2.88;;
36931;SDS011;22847;42.654;23.370;2024-02-04T06:01:49;4.82;;;2.85;;
36931;SDS011;22847;42.654;23.370;2024-02-04T06:04:14;3.97;;;2.65;;
36931;SDS011;22847;42.654;23.370;2024-02-04T06:06:40;3.97;;;2.80;;
36931;SDS011;22847;42.654;23.370;2024-02-04T06:09:05;4.38;;;3.03;;
36931;SDS011;22847;42.654;23.370;2024-02-04T06:11:31;4.70;;;3.00;;
36931;SDS011;22847;42.654;23.370;2024-02-04T06:13:57;9.73;;;3.20;;
36931;SDS011;22847;42.654;23.370;2024-02-04T06:16:22;5.40;;;3.33;;
36931;SDS011;22847;42.654;23.370;2024-02-04T06:18:48;5.20;;;3.25;;
36931;SDS011;22847;42.654;23.370;2024-02-04T06:21:13;5.70;;;2.83;;
36931;SDS011;22847;42.654;23.370;2024-02-04T06:23:38;4.88;;;3.35;;
36931;SDS011;22847;42.654;23.370;2024-02-04T06:26:04;6.72;;;3.42;;
36931;SDS011;22847;42.654;23.370;2024-02-04T06:28:30;6.18;;;3.72;;
36931;SDS011;22847;42.654;23.370;2024-02-04T06:30:56;6.00;;;3.70;;
36931;SDS011;22847;42.654;23.370;2024-02-04T06:33:22;5.45;;;3.22;;
36931;SDS011;22847;42.654;23.370;2024-02-04T06:35:49;7.25;;;3.80;;
36931;SDS011;22847;42.654;23.370;2024-02-04T06:38:15;5.18;;;3.38;;
36931;SDS011;22847;42.654;23.370;2024-02-04T06:40:41;7.43;;;3.53;;
36931;SDS011;22847;42.654;23.370;2024-02-04T06:43:06;10.35;;;3.50;;
36931;SDS011;22847;42.654;23.370;2024-02-04T06:45:32;6.97;;;3.60;;
36931;SDS011;22847;42.654;23.370;2024-02-04T06:47:57;7.13;;;3.22;;
36931;SDS011;22847;42.654;23.370;2024-02-04T06:50:23;7.55;;;3.85;;
36931;SDS011;22847;42.654;23.370;2024-02-04T06:52:48;6.70;;;3.03;;
36931;SDS011;22847;42.654;23.370;2024-02-04T06:55:14;5.75;;;3.50;;
36931;SDS011;22847;42.654;23.370;2024-02-04T06:57:39;19.67;;;8.73;;
36931;SDS011;22847;42.654;23.370;2024-02-04T07:00:06;5.22;;;3.50;;
36931;SDS011;22847;42.654;23.370;2024-02-04T07:02:36;6.32;;;3.00;;
36931;SDS011;22847;42.654;23.370;2024-02-04T07:05:02;4.35;;;2.83;;
36931;SDS011;22847;42.654;23.370;2024-02-04T07:07:28;5.25;;;2.80;;
36931;SDS011;22847;42.654;23.370;2024-02-04T07:09:54;4.47;;;3.40;;
36931;SDS011;22847;42.654;23.370;2024-02-04T07:12:19;3.30;;;2.60;;
36931;SDS011;22847;42.654;23.370;2024-02-04T07:14:45;4.15;;;3.00;;
36931;SDS011;22847;42.654;23.370;2024-02-04T07:17:11;8.25;;;3.20;;
36931;SDS011;22847;42.654;23.370;2024-02-04T07:19:37;8.40;;;4.45;;
36931;SDS011;22847;42.654;23.370;2024-02-04T07:22:03;6.57;;;3.13;;
36931;SDS011;22847;42.654;23.370;2024-02-04T07:24:28;4.57;;;3.47;;
36931;SDS011;22847;42.654;23.370;2024-02-04T07:26:54;10.35;;;3.08;;
36931;SDS011;22847;42.654;23.370;2024-02-04T07:29:20;7.90;;;4.13;;
36931;SDS011;22847;42.654;23.370;2024-02-04T07:31:46;5.75;;;3.38;;
36931;SDS011;22847;42.654;23.370;2024-02-04T07:34:11;5.05;;;2.58;;
36931;SDS011;22847;42.654;23.370;2024-02-04T07:36:37;4.25;;;2.78;;
36931;SDS011;22847;42.654;23.370;2024-02-04T07:39:02;5.15;;;2.63;;
36931;SDS011;22847;42.654;23.370;2024-02-04T07:41:29;6.07;;;3.55;;
36931;SDS011;22847;42.654;23.370;2024-02-04T07:43:56;7.85;;;3.70;;
36931;SDS011;22847;42.654;23.370;2024-02-04T07:46:22;5.65;;;3.13;;
36931;SDS011;22847;42.654;23.370;2024-02-04T07:49:42;4.05;;;3.00;;
36931;SDS011;22847;42.654;23.370;2024-02-04T07:52:08;9.23;;;3.20;;
36931;SDS011;22847;42.654;23.370;2024-02-04T07:54:34;5.88;;;3.30;;
36931;SDS011;22847;42.654;23.370;2024-02-04T07:56:59;7.82;;;2.72;;
36931;SDS011;22847;42.654;23.370;2024-02-04T07:59:25;6.68;;;3.22;;
36931;SDS011;22847;42.654;23.370;2024-02-04T08:01:50;10.18;;;3.72;;
36931;SDS011;22847;42.654;23.370;2024-02-04T08:04:16;6.25;;;2.90;;
36931;SDS011;22847;42.654;23.370;2024-02-04T08:06:41;7.57;;;2.92;;
36931;SDS011;22847;42.654;23.370;2024-02-04T08:09:07;7.10;;;3.00;;
36931;SDS011;22847;42.654;23.370;2024-02-04T08:11:33;5.95;;;2.55;;
36931;SDS011;22847;42.654;23.370;2024-02-04T08:13:59;4.75;;;2.95;;
36931;SDS011;22847;42.654;23.370;2024-02-04T08:16:25;5.82;;;3.72;;
36931;SDS011;22847;42.654;23.370;2024-02-04T08:18:51;7.85;;;3.08;;
36931;SDS011;22847;42.654;23.370;2024-02-04T08:21:16;9.40;;;3.03;;
36931;SDS011;22847;42.654;23.370;2024-02-04T08:23:42;4.30;;;2.50;;
36931;SDS011;22847;42.654;23.370;2024-02-04T08:26:09;6.40;;;2.78;;
36931;SDS011;22847;42.654;23.370;2024-02-04T08:28:35;3.60;;;2.20;;
36931;SDS011;22847;42.654;23.370;2024-02-04T08:31:00;4.13;;;2.55;;
36931;SDS011;22847;42.654;23.370;2024-02-04T08:33:26;4.20;;;2.70;;
36931;SDS011;22847;42.654;23.370;2024-02-04T08:35:51;4.20;;;2.85;;
36931;SDS011;22847;42.654;23.370;2024-02-04T08:38:16;4.45;;;2.40;;
36931;SDS011;22847;42.654;23.370;2024-02-04T08:40:42;13.35;;;4.50;;
36931;SDS011;22847;42.654;23.370;2024-02-04T08:43:07;5.20;;;2.42;;
36931;SDS011;22847;42.654;23.370;2024-02-04T08:45:33;12.15;;;3.92;;
36931;SDS011;22847;42.654;23.370;2024-02-04T08:47:58;5.97;;;3.00;;
36931;SDS011;22847;42.654;23.370;2024-02-04T08:50:24;4.65;;;2.72;;
36931;SDS011;22847;42.654;23.370;2024-02-04T08:52:49;4.10;;;1.80;;
36931;SDS011;22847;42.654;23.370;2024-02-04T08:55:15;7.22;;;2.50;;
36931;SDS011;22847;42.654;23.370;2024-02-04T08:57:40;4.63;;;2.00;;
36931;SDS011;22847;42.654;23.370;2024-02-04T09:00:06;2.58;;;1.95;;
36931;SDS011;22847;42.654;23.370;2024-02-04T09:02:36;6.00;;;2.90;;
36931;SDS011;22847;42.654;23.370;2024-02-04T09:05:03;2.88;;;1.70;;
36931;SDS011;22847;42.654;23.370;2024-02-04T09:07:29;3.13;;;1.95;;
36931;SDS011;22847;42.654;23.370;2024-02-04T09:09:56;5.95;;;3.65;;
36931;SDS011;22847;42.654;23.370;2024-02-04T09:12:21;4.03;;;2.72;;
36931;SDS011;22847;42.654;23.370;2024-02-04T09:14:47;8.52;;;3.00;;
36931;SDS011;22847;42.654;23.370;2024-02-04T09:17:12;4.65;;;2.72;;
36931;SDS011;22847;42.654;23.370;2024-02-04T09:19:38;5.60;;;2.40;;
36931;SDS011;22847;42.654;23.370;2024-02-04T09:22:04;8.05;;;2.65;;
36931;SDS011;22847;42.654;23.370;2024-02-04T09:24:30;8.38;;;2.05;;
36931;SDS011;22847;42.654;23.370;2024-02-04T09:26:55;3.20;;;2.20;;
36931;SDS011;22847;42.654;23.370;2024-02-04T09:29:21;5.75;;;2.10;;
36931;SDS011;22847;42.654;23.370;2024-02-04T09:31:46;5.53;;;2.17;;
36931;SDS011;22847;42.654;23.370;2024-02-04T09:34:12;14.63;;;3.42;;
36931;SDS011;22847;42.654;23.370;2024-02-04T09:36:37;3.10;;;2.08;;
36931;SDS011;22847;42.654;23.370;2024-02-04T09:39:03;5.70;;;3.00;;
36931;SDS011;22847;42.654;23.370;2024-02-04T09:41:28;9.00;;;3.78;;
36931;SDS011;22847;42.654;23.370;2024-02-04T09:44:13;3.53;;;2.22;;
36931;SDS011;22847;42.654;23.370;2024-02-04T09:46:39;8.05;;;1.98;;
36931;SDS011;22847;42.654;23.370;2024-02-04T09:49:05;8.98;;;2.90;;
36931;SDS011;22847;42.654;23.370;2024-02-04T09:51:32;4.43;;;2.67;;
36931;SDS011;22847;42.654;23.370;2024-02-04T09:53:59;4.57;;;1.95;;
36931;SDS011;22847;42.654;23.370;2024-02-04T09:56:31;5.60;;;2.20;;
36931;SDS011;22847;42.654;23.370;2024-02-04T09:58:59;7.45;;;2.50;;
36931;SDS011;22847;42.654;23.370;2024-02-04T10:01:25;5.43;;;2.17;;
36931;SDS011;22847;42.654;23.370;2024-02-04T10:03:51;4.60;;;2.10;;
36931;SDS011;22847;42.654;23.370;2024-02-04T10:06:17;5.97;;;2.40;;
36931;SDS011;22847;42.654;23.370;2024-02-04T10:08:42;3.85;;;2.38;;
36931;SDS011;22847;42.654;23.370;2024-02-04T10:11:08;9.52;;;3.40;;
36931;SDS011;22847;42.654;23.370;2024-02-04T10:13:44;5.57;;;2.70;;
36931;SDS011;22847;42.654;23.370;2024-02-04T10:16:11;4.35;;;2.95;;
36931;SDS011;22847;42.654;23.370;2024-02-04T10:18:37;4.88;;;2.53;;
36931;SDS011;22847;42.654;23.370;2024-02-04T10:21:13;5.55;;;2.10;;
36931;SDS011;22847;42.654;23.370;2024-02-04T10:23:49;14.73;;;2.28;;
36931;SDS011;22847;42.654;23.370;2024-02-04T10:26:15;3.30;;;1.60;;
36931;SDS011;22847;42.654;23.370;2024-02-04T10:28:41;7.72;;;2.03;;
36931;SDS011;22847;42.654;23.370;2024-02-04T10:31:10;6.22;;;2.03;;
36931;SDS011;22847;42.654;23.370;2024-02-04T10:33:36;3.42;;;1.70;;
36931;SDS011;22847;42.654;23.370;2024-02-04T10:36:02;11.07;;;1.77;;
36931;SDS011;22847;42.654;23.370;2024-02-04T10:38:28;4.85;;;2.13;;
36931;SDS011;22847;42.654;23.370;2024-02-04T10:40:54;2.92;;;1.73;;
36931;SDS011;22847;42.654;23.370;2024-02-04T10:43:20;6.22;;;2.00;;
36931;SDS011;22847;42.654;23.370;2024-02-04T10:45:47;6.32;;;1.80;;
36931;SDS011;22847;42.654;23.370;2024-02-04T10:48:15;5.20;;;2.10;;
36931;SDS011;22847;42.654;23.370;2024-02-04T10:50:46;9.40;;;2.13;;
36931;SDS011;22847;42.654;23.370;2024-02-04T10:53:14;6.40;;;2.10;;
36931;SDS011;22847;42.654;23.370;2024-02-04T10:55:40;5.60;;;2.30;;
36931;SDS011;22847;42.654;23.370;2024-02-04T10:58:10;5.10;;;2.10;;
36931;SDS011;22847;42.654;23.370;2024-02-04T11:00:38;8.07;;;2.60;;
36931;SDS011;22847;42.654;23.370;2024-02-04T11:03:05;3.30;;;1.35;;
36931;SDS011;22847;42.654;23.370;2024-02-04T11:05:32;4.13;;;1.67;;
36931;SDS011;22847;42.654;23.370;2024-02-04T11:08:00;4.13;;;2.17;;
36931;SDS011;22847;42.654;23.370;2024-02-04T11:10:29;3.17;;;1.80;;
36931;SDS011;22847;42.654;23.370;2024-02-04T11:12:56;2.33;;;1.70;;
36931;SDS011;22847;42.654;23.370;2024-02-04T11:15:26;2.17;;;1.65;;
36931;SDS011;22847;42.654;23.370;2024-02-04T11:20:46;2.33;;;1.77;;
36931;SDS011;22847;42.654;23.370;2024-02-04T11:26:24;4.15;;;1.98;;
36931;SDS011;22847;42.654;23.370;2024-02-04T11:28:51;4.10;;;1.77;;
36931;SDS011;22847;42.654;23.370;2024-02-04T11:31:17;2.92;;;1.63;;
36931;SDS011;22847;42.654;23.370;2024-02-04T11:33:43;2.30;;;2.00;;
36931;SDS011;22847;42.654;23.370;2024-02-04T11:36:13;4.40;;;1.80;;
36931;SDS011;22847;42.654;23.370;2024-02-04T11:38:40;3.67;;;1.90;;
36931;SDS011;22847;42.654;23.370;2024-02-04T11:41:06;3.30;;;1.70;;
36931;SDS011;22847;42.654;23.370;2024-02-04T11:43:33;2.53;;;1.80;;
36931;SDS011;22847;42.654;23.370;2024-02-04T11:46:02;2.97;;;1.60;;
36931;SDS011;22847;42.654;23.370;2024-02-04T11:48:34;2.00;;;1.40;;
36931;SDS011;22847;42.654;23.370;2024-02-04T11:51:01;2.10;;;1.40;;
36931;SDS011;22847;42.654;23.370;2024-02-04T11:53:29;2.03;;;1.65;;
36931;SDS011;22847;42.654;23.370;2024-02-04T11:55:58;4.95;;;1.90;;
36931;SDS011;22847;42.654;23.370;2024-02-04T11:58:25;1.85;;;1.48;;
36931;SDS011;22847;42.654;23.370;2024-02-04T12:00:52;3.80;;;2.22;;
36931;SDS011;22847;42.654;23.370;2024-02-04T12:03:29;3.60;;;2.10;;
36931;SDS011;22847;42.654;23.370;2024-02-04T12:05:58;4.22;;;2.10;;
36931;SDS011;22847;42.654;23.370;2024-02-04T12:08:25;9.43;;;2.30;;
36931;SDS011;22847;42.654;23.370;2024-02-04T12:10:56;1.83;;;1.63;;
36931;SDS011;22847;42.654;23.370;2024-02-04T12:13:23;4.50;;;2.40;;
36931;SDS011;22847;42.654;23.370;2024-02-04T12:15:49;5.95;;;2.50;;
36931;SDS011;22847;42.654;23.370;2024-02-04T12:18:15;6.03;;;2.72;;
36931;SDS011;22847;42.654;23.370;2024-02-04T12:20:45;4.85;;;1.80;;
36931;SDS011;22847;42.654;23.370;2024-02-04T12:23:12;2.67;;;1.98;;
36931;SDS011;22847;42.654;23.370;2024-02-04T12:25:37;5.65;;;1.65;;
36931;SDS011;22847;42.654;23.370;2024-02-04T12:28:03;3.17;;;1.95;;
36931;SDS011;22847;42.654;23.370;2024-02-04T12:30:30;3.00;;;1.90;;
36931;SDS011;22847;42.654;23.370;2024-02-04T12:33:04;4.60;;;1.90;;
36931;SDS011;22847;42.654;23.370;2024-02-04T12:35:30;2.00;;;1.42;;
36931;SDS011;22847;42.654;23.370;2024-02-04T12:37:57;5.30;;;2.03;;
36931;SDS011;22847;42.654;23.370;2024-02-04T12:40:24;4.18;;;1.70;;
36931;SDS011;22847;42.654;23.370;2024-02-04T12:42:57;3.63;;;2.05;;
36931;SDS011;22847;42.654;23.370;2024-02-04T12:45:24;2.45;;;2.00;;
36931;SDS011;22847;42.654;23.370;2024-02-04T12:47:51;6.45;;;2.53;;
36931;SDS011;22847;42.654;23.370;2024-02-04T12:50:18;4.88;;;1.98;;
36931;SDS011;22847;42.654;23.370;2024-02-04T12:52:44;2.95;;;1.70;;
36931;SDS011;22847;42.654;23.370;2024-02-04T12:55:23;12.55;;;1.92;;
36931;SDS011;22847;42.654;23.370;2024-02-04T12:58:03;5.05;;;1.80;;
36931;SDS011;22847;42.654;23.370;2024-02-04T13:00:37;2.00;;;1.80;;
36931;SDS011;22847;42.654;23.370;2024-02-04T13:03:04;2.75;;;1.70;;
36931;SDS011;22847;42.654;23.370;2024-02-04T13:05:31;2.40;;;1.88;;
36931;SDS011;22847;42.654;23.370;2024-02-04T13:07:58;3.58;;;2.00;;
36931;SDS011;22847;42.654;23.370;2024-02-04T13:10:27;3.50;;;1.55;;
36931;SDS011;22847;42.654;23.370;2024-02-04T13:13:00;2.70;;;1.90;;
36931;SDS011;22847;42.654;23.370;2024-02-04T13:15:29;2.10;;;1.55;;
36931;SDS011;22847;42.654;23.370;2024-02-04T13:17:55;1.90;;;1.70;;
36931;SDS011;22847;42.654;23.370;2024-02-04T13:20:22;3.83;;;2.00;;
36931;SDS011;22847;42.654;23.370;2024-02-04T13:22:47;3.58;;;2.13;;
36931;SDS011;22847;42.654;23.370;2024-02-04T13:25:13;5.03;;;2.05;;
36931;SDS011;22847;42.654;23.370;2024-02-04T13:27:39;3.55;;;1.83;;
36931;SDS011;22847;42.654;23.370;2024-02-04T13:30:06;2.63;;;2.10;;
36931;SDS011;22847;42.654;23.370;2024-02-04T13:32:38;3.53;;;1.70;;
36931;SDS011;22847;42.654;23.370;2024-02-04T13:35:05;4.45;;;1.70;;
36931;SDS011;22847;42.654;23.370;2024-02-04T13:37:32;2.40;;;1.73;;
36931;SDS011;22847;42.654;23.370;2024-02-04T13:39:57;2.75;;;1.77;;
36931;SDS011;22847;42.654;23.370;2024-02-04T13:42:23;2.55;;;1.85;;
36931;SDS011;22847;42.654;23.370;2024-02-04T13:44:49;5.88;;;1.65;;
36931;SDS011;22847;42.654;23.370;2024-02-04T13:47:14;2.05;;;1.85;;
36931;SDS011;22847;42.654;23.370;2024-02-04T13:49:40;8.68;;;2.63;;
36931;SDS011;22847;42.654;23.370;2024-02-04T13:52:05;3.55;;;1.88;;
36931;SDS011;22847;42.654;23.370;2024-02-04T13:54:31;2.10;;;1.75;;
36931;SDS011;22847;42.654;23.370;2024-02-04T13:56:56;2.85;;;1.60;;
36931;SDS011;22847;42.654;23.370;2024-02-04T13:59:22;4.03;;;2.15;;
36931;SDS011;22847;42.654;23.370;2024-02-04T14:01:47;3.40;;;1.90;;
36931;SDS011;22847;42.654;23.370;2024-02-04T14:04:12;4.07;;;1.90;;
36931;SDS011;22847;42.654;23.370;2024-02-04T14:06:38;3.05;;;2.00;;
36931;SDS011;22847;42.654;23.370;2024-02-04T14:09:03;4.20;;;1.88;;
36931;SDS011;22847;42.654;23.370;2024-02-04T14:11:30;2.63;;;2.03;;
36931;SDS011;22847;42.654;23.370;2024-02-04T14:13:56;2.42;;;1.90;;
36931;SDS011;22847;42.654;23.370;2024-02-04T14:16:21;3.35;;;2.47;;
36931;SDS011;22847;42.654;23.370;2024-02-04T14:18:46;5.03;;;2.30;;
36931;SDS011;22847;42.654;23.370;2024-02-04T14:21:12;5.05;;;2.28;;
36931;SDS011;22847;42.654;23.370;2024-02-04T14:23:39;3.22;;;2.30;;
36931;SDS011;22847;42.654;23.370;2024-02-04T14:26:05;4.70;;;2.08;;
36931;SDS011;22847;42.654;23.370;2024-02-04T14:28:33;3.55;;;2.35;;
36931;SDS011;22847;42.654;23.370;2024-02-04T14:31:06;8.68;;;3.45;;
36931;SDS011;22847;42.654;23.370;2024-02-04T14:33:32;6.05;;;3.53;;
36931;SDS011;22847;42.654;23.370;2024-02-04T14:35:58;3.97;;;2.50;;
36931;SDS011;22847;42.654;23.370;2024-02-04T14:38:25;5.32;;;2.85;;
36931;SDS011;22847;42.654;23.370;2024-02-04T14:40:51;3.33;;;2.17;;
36931;SDS011;22847;42.654;23.370;2024-02-04T14:43:16;2.80;;;2.20;;
36931;SDS011;22847;42.654;23.370;2024-02-04T14:45:43;4.47;;;2.63;;